Time;durP1;ratioP1;P1;durP2;ratioP2;P2;SDS_P1;SDS_P2;PMS_P1;PMS_P2;Temp;Humidity;BMP_temperature;BMP_pressure;BME280_temperature;BME280_humidity;BME280_pressure;Samples;Min_cycle;Max_cycle;Signal;HPM_P1;HPM_P2
2024/01/09 00:00:00;;;;;;;20.53;14.17;;;;;20.10;102129.00;;;;2056437;28;20215;-50
2024/01/09 00:01:01;;;;;;;19.70;13.63;;;;;20.10;102131.00;;;;2056243;28;20286;-49
2024/01/09 00:02:02;;;;;;;18.00;12.75;;;;;20.10;102121.00;;;;2056153;28;20594;-51
2024/01/09 00:03:02;;;;;;;17.83;12.70;;;;;20.00;102113.00;;;;2057418;28;20245;-50
2024/01/09 00:04:03;;;;;;;17.47;13.63;;;;;20.10;102126.00;;;;2063909;28;20810;-49
2024/01/09 00:05:03;;;;;;;16.17;12.00;;;;;20.00;102128.00;;;;2054029;28;20258;-50
2024/01/09 00:06:04;;;;;;;18.57;13.77;;;;;20.00;102118.00;;;;2058318;28;20225;-54
2024/01/09 00:07:04;;;;;;;16.10;13.00;;;;;20.00;102127.00;;;;2056974;28;20229;-50
2024/01/09 00:08:04;;;;;;;18.57;13.50;;;;;20.00;102131.00;;;;2051070;28;20235;-50
2024/01/09 00:09:05;;;;;;;17.07;12.50;;;;;20.00;102133.00;;;;2073397;28;20312;-50
2024/01/09 00:10:07;;;;;;;16.13;12.07;;;;;20.00;102129.00;;;;2059557;28;20254;-50
2024/01/09 00:11:07;;;;;;;16.30;12.07;;;;;20.00;102130.00;;;;2055819;28;20680;-53
2024/01/09 00:12:09;;;;;;;14.97;12.10;;;;;20.00;102184.00;;;;2043107;28;20242;-51
2024/01/09 00:13:09;;;;;;;17.77;12.20;;;;;19.90;102131.00;;;;2063290;28;20603;-50
2024/01/09 00:14:11;;;;;;;16.87;12.40;;;;;19.90;102113.00;;;;2057576;28;20219;-53
2024/01/09 00:15:12;;;;;;;16.45;12.30;;;;;19.90;102118.00;;;;2061153;28;20219;-50
2024/01/09 00:16:12;;;;;;;17.70;11.77;;;;;19.90;102133.00;;;;2055675;28;20672;-50
2024/01/09 00:17:12;;;;;;;17.13;12.50;;;;;19.90;102128.00;;;;2048774;28;20740;-54
2024/01/09 00:18:12;;;;;;;16.13;12.00;;;;;19.90;102116.00;;;;2054281;28;20619;-51
2024/01/09 00:19:13;;;;;;;15.33;11.20;;;;;19.90;102119.00;;;;2057921;28;20210;-51
2024/01/09 00:20:14;;;;;;;14.27;11.33;;;;;19.90;102112.00;;;;2055383;28;20215;-52
2024/01/09 00:21:14;;;;;;;15.43;11.63;;;;;19.90;102111.00;;;;2059041;28;20261;-53
2024/01/09 00:22:14;;;;;;;14.67;10.77;;;;;19.80;102115.00;;;;2049781;28;20207;-50
2024/01/09 00:23:15;;;;;;;14.70;10.67;;;;;19.90;102111.00;;;;2068045;28;20217;-54
2024/01/09 00:24:17;;;;;;;14.97;9.70;;;;;19.90;102107.00;;;;2065853;28;20287;-53
2024/01/09 00:25:18;;;;;;;14.15;10.48;;;;;19.90;102108.00;;;;2060832;28;20261;-51
2024/01/09 00:26:20;;;;;;;14.07;10.02;;;;;19.80;102118.00;;;;2054477;28;20226;-51
2024/01/09 00:27:20;;;;;;;13.70;10.35;;;;;19.80;102110.00;;;;2053511;28;20227;-51
2024/01/09 00:28:20;;;;;;;14.60;10.13;;;;;19.80;102110.00;;;;2068418;28;20309;-52
2024/01/09 00:29:21;;;;;;;13.50;10.43;;;;;19.80;102111.00;;;;2058091;28;20227;-50
2024/01/09 00:30:21;;;;;;;12.60;9.57;;;;;19.80;102113.00;;;;2060055;28;20219;-51
2024/01/09 00:31:21;;;;;;;12.80;10.07;;;;;19.80;102110.00;;;;2058227;28;20250;-51
2024/01/09 00:32:22;;;;;;;12.57;8.83;;;;;19.80;102111.00;;;;2049655;28;20223;-52
2024/01/09 00:33:22;;;;;;;14.30;9.73;;;;;19.80;102114.00;;;;2056261;28;20246;-51
2024/01/09 00:34:22;;;;;;;11.83;8.73;;;;;19.80;102109.00;;;;2053864;28;20245;-51
2024/01/09 00:35:23;;;;;;;13.17;9.90;;;;;19.80;102120.00;;;;2054745;28;20226;-52
2024/01/09 00:36:24;;;;;;;13.93;9.83;;;;;19.70;102114.00;;;;2059098;28;20223;-50
2024/01/09 00:37:24;;;;;;;11.68;9.15;;;;;19.70;102107.00;;;;2043599;28;20310;-50
2024/01/09 00:38:25;;;;;;;12.80;9.73;;;;;19.70;102109.00;;;;2058523;28;20227;-51
2024/01/09 00:39:25;;;;;;;13.47;9.77;;;;;19.80;102111.00;;;;2061092;28;20679;-51
2024/01/09 00:40:25;;;;;;;12.50;9.70;;;;;19.70;102116.00;;;;2055647;28;21896;-51
2024/01/09 00:41:26;;;;;;;13.83;9.07;;;;;19.70;102114.00;;;;2060564;28;20597;-52
2024/01/09 00:42:26;;;;;;;12.33;8.83;;;;;19.70;102120.00;;;;2052162;28;20313;-52
2024/01/09 00:43:26;;;;;;;9.87;8.00;;;;;19.70;102116.00;;;;2066259;28;20233;-51
2024/01/09 00:44:27;;;;;;;13.40;9.27;;;;;19.70;102116.00;;;;2068186;28;20226;-52
2024/01/09 00:45:27;;;;;;;13.57;8.97;;;;;19.70;102116.00;;;;2067256;28;20304;-52
2024/01/09 00:46:28;;;;;;;10.70;7.80;;;;;19.70;102106.00;;;;2061266;28;20280;-53
2024/01/09 00:47:29;;;;;;;10.17;8.50;;;;;19.60;102107.00;;;;2057663;28;20218;-51
2024/01/09 00:48:30;;;;;;;11.05;8.82;;;;;19.70;102105.00;;;;2069229;28;20377;-53
2024/01/09 00:49:30;;;;;;;10.40;8.10;;;;;19.70;102103.00;;;;2061687;28;20227;-50
2024/01/09 00:50:30;;;;;;;11.33;8.13;;;;;19.60;102120.00;;;;2060971;28;20253;-51
2024/01/09 00:51:31;;;;;;;11.37;8.47;;;;;19.60;102106.00;;;;2060917;28;20211;-51
2024/01/09 00:52:31;;;;;;;10.87;7.90;;;;;19.70;102102.00;;;;2053485;28;20237;-52
2024/01/09 00:53:31;;;;;;;10.33;7.47;;;;;19.60;102110.00;;;;2074720;28;20780;-52
2024/01/09 00:54:32;;;;;;;10.50;7.90;;;;;19.60;102106.00;;;;2066337;28;20992;-51
2024/01/09 00:55:32;;;;;;;10.70;7.90;;;;;19.60;102112.00;;;;2060946;28;20234;-52
2024/01/09 00:56:32;;;;;;;11.37;8.40;;;;;19.60;102114.00;;;;2068760;28;20233;-50
2024/01/09 00:57:33;;;;;;;10.60;8.00;;;;;19.60;102101.00;;;;2057677;28;20246;-50
2024/01/09 00:58:33;;;;;;;12.00;7.90;;;;;19.60;102105.00;;;;2055648;28;20215;-50
2024/01/09 00:59:33;;;;;;;8.50;6.53;;;;;19.60;101994.00;;;;2068329;28;20210;-50
2024/01/09 01:00:34;;;;;;;11.27;7.60;;;;;19.60;102110.00;;;;2061118;28;20219;-52
2024/01/09 01:01:34;;;;;;;10.13;6.83;;;;;19.60;102105.00;;;;2062702;28;20847;-51
2024/01/09 01:02:34;;;;;;;9.73;7.40;;;;;19.60;102100.00;;;;2049951;28;20221;-50
2024/01/09 01:03:35;;;;;;;10.60;7.70;;;;;19.60;102101.00;;;;2053626;28;20830;-50
2024/01/09 01:04:38;;;;;;;9.23;6.60;;;;;19.60;102108.00;;;;2059637;28;20844;-51
2024/01/09 01:05:39;;;;;;;8.93;6.72;;;;;19.60;102111.00;;;;2059583;28;21864;-50
2024/01/09 01:06:43;;;;;;;11.23;7.70;;;;;19.60;102110.00;;;;2057060;28;20222;-51
2024/01/09 01:07:43;;;;;;;8.80;6.85;;;;;19.60;102098.00;;;;2042715;28;20219;-50
2024/01/09 01:08:44;;;;;;;11.97;7.30;;;;;19.60;102119.00;;;;2060193;28;20219;-52
2024/01/09 01:09:44;;;;;;;9.37;6.73;;;;;19.60;102114.00;;;;2061146;28;20675;-51
2024/01/09 01:10:44;;;;;;;8.53;6.33;;;;;19.60;102099.00;;;;2059900;28;20703;-51
2024/01/09 01:11:44;;;;;;;8.40;6.70;;;;;19.60;102109.00;;;;2058402;28;20211;-52
2024/01/09 01:12:45;;;;;;;9.20;6.83;;;;;19.50;102107.00;;;;2051366;28;20219;-53
2024/01/09 01:13:45;;;;;;;8.53;6.60;;;;;19.50;102106.00;;;;2059655;28;20281;-50
2024/01/09 01:14:45;;;;;;;10.23;7.97;;;;;19.50;102114.00;;;;2060382;28;20313;-52
2024/01/09 01:15:46;;;;;;;9.80;6.93;;;;;19.50;102113.00;;;;2058086;28;20234;-51
2024/01/09 01:16:46;;;;;;;9.27;6.53;;;;;19.50;102113.00;;;;2052827;28;20262;-52
2024/01/09 01:17:47;;;;;;;9.57;6.83;;;;;19.50;102108.00;;;;2044811;28;20248;-51
2024/01/09 01:18:47;;;;;;;8.90;6.67;;;;;19.50;102119.00;;;;2056730;28;20225;-52
2024/01/09 01:19:47;;;;;;;9.57;6.13;;;;;19.50;101933.00;;;;2052293;28;20239;-52
2024/01/09 01:20:48;;;;;;;8.20;5.63;;;;;19.50;102119.00;;;;2055493;28;20527;-50
2024/01/09 01:21:48;;;;;;;8.67;6.40;;;;;19.50;102111.00;;;;2053258;28;20211;-51
2024/01/09 01:22:48;;;;;;;8.90;6.43;;;;;19.50;102112.00;;;;2050109;28;20229;-51
2024/01/09 01:23:49;;;;;;;9.20;6.40;;;;;19.50;102143.00;;;;2059093;28;20562;-51
2024/01/09 01:24:49;;;;;;;7.10;5.37;;;;;19.50;102112.00;;;;2054602;28;20860;-50
2024/01/09 01:25:49;;;;;;;7.43;5.90;;;;;19.50;102153.00;;;;2059509;28;21001;-52
2024/01/09 01:26:50;;;;;;;8.43;6.30;;;;;19.50;102109.00;;;;2059112;28;20699;-52
2024/01/09 01:27:50;;;;;;;8.60;5.93;;;;;19.50;102121.00;;;;2048010;28;20211;-50
2024/01/09 01:28:50;;;;;;;9.17;6.80;;;;;19.50;102128.00;;;;2052684;28;20215;-51
2024/01/09 01:29:50;;;;;;;8.00;5.67;;;;;19.40;102120.00;;;;2053721;28;20221;-51
2024/01/09 01:30:51;;;;;;;7.83;5.90;;;;;19.40;102126.00;;;;2058494;28;20210;-52
2024/01/09 01:31:51;;;;;;;8.30;5.60;;;;;19.40;102126.00;;;;2051505;28;20235;-53
2024/01/09 01:32:51;;;;;;;7.77;5.20;;;;;19.40;102115.00;;;;2046289;28;20222;-52
2024/01/09 01:33:52;;;;;;;8.33;5.37;;;;;19.40;102181.00;;;;2052946;28;20207;-52
2024/01/09 01:34:53;;;;;;;9.55;6.28;;;;;19.40;102126.00;;;;2059757;28;21530;-51
2024/01/09 01:35:53;;;;;;;7.67;5.30;;;;;19.40;102122.00;;;;2056613;28;20230;-51
2024/01/09 01:36:53;;;;;;;8.40;5.83;;;;;19.40;102133.00;;;;2053642;28;20219;-52
2024/01/09 01:37:54;;;;;;;7.60;5.20;;;;;19.40;102134.00;;;;2047997;28;20598;-51
2024/01/09 01:38:54;;;;;;;8.20;5.60;;;;;19.40;102129.00;;;;2052477;28;21009;-52
2024/01/09 01:39:54;;;;;;;8.00;5.43;;;;;19.40;102114.00;;;;2055427;28;20729;-50
2024/01/09 01:40:55;;;;;;;6.60;5.03;;;;;19.40;102111.00;;;;2052552;28;20215;-51
2024/01/09 01:41:55;;;;;;;6.90;5.03;;;;;19.40;102110.00;;;;2051279;28;20211;-51
2024/01/09 01:42:57;;;;;;;6.23;4.70;;;;;19.40;102115.00;;;;2045380;28;20289;-52
2024/01/09 01:43:57;;;;;;;7.45;5.40;;;;;19.40;102115.00;;;;2060811;28;20257;-50
2024/01/09 01:44:58;;;;;;;7.87;5.20;;;;;19.40;102111.00;;;;2055781;28;20269;-50
2024/01/09 01:45:58;;;;;;;7.03;5.18;;;;;19.30;102111.00;;;;2051073;28;20676;-52
2024/01/09 01:46:59;;;;;;;6.10;4.47;;;;;19.40;102094.00;;;;2054489;28;20212;-52
2024/01/09 01:47:59;;;;;;;6.67;4.80;;;;;19.30;102139.00;;;;2045520;28;20210;-50
2024/01/09 01:48:59;;;;;;;7.63;4.70;;;;;19.40;102115.00;;;;2058684;28;20769;-51
2024/01/09 01:50:00;;;;;;;6.07;4.47;;;;;19.40;102115.00;;;;2060890;28;20226;-51
2024/01/09 01:51:00;;;;;;;6.97;4.80;;;;;19.30;102126.00;;;;2061065;28;20219;-51
2024/01/09 01:52:00;;;;;;;6.20;4.40;;;;;19.30;102120.00;;;;2057676;28;20211;-52
2024/01/09 01:53:01;;;;;;;5.63;4.00;;;;;19.40;102117.00;;;;2049971;28;20230;-50
2024/01/09 01:54:01;;;;;;;5.73;4.17;;;;;19.30;102113.00;;;;2055244;28;20309;-50
2024/01/09 01:55:01;;;;;;;5.40;4.30;;;;;19.30;102112.00;;;;2063143;28;20226;-50
2024/01/09 01:56:02;;;;;;;6.40;4.83;;;;;19.30;102111.00;;;;2062230;28;20231;-52
2024/01/09 01:57:02;;;;;;;6.50;4.90;;;;;19.30;102111.00;;;;2061982;28;20371;-52
2024/01/09 01:58:03;;;;;;;6.30;4.70;;;;;19.30;102114.00;;;;2045574;28;20765;-51
2024/01/09 01:59:03;;;;;;;5.73;4.20;;;;;19.30;102007.00;;;;2060776;28;20231;-52
2024/01/09 02:00:04;;;;;;;6.40;4.23;;;;;19.30;102116.00;;;;2055698;28;20246;-50
2024/01/09 02:01:04;;;;;;;5.23;4.23;;;;;19.30;102118.00;;;;2058310;28;20306;-50
2024/01/09 02:02:05;;;;;;;6.13;4.37;;;;;19.30;102114.00;;;;2057680;28;20458;-51
2024/01/09 02:03:05;;;;;;;6.63;4.47;;;;;19.30;102116.00;;;;2061290;28;20332;-52
2024/01/09 02:04:06;;;;;;;6.50;4.70;;;;;19.30;102109.00;;;;2060672;28;20222;-51
2024/01/09 02:05:06;;;;;;;5.55;4.80;;;;;19.30;102119.00;;;;2063322;28;20222;-51
2024/01/09 02:06:07;;;;;;;5.60;4.40;;;;;19.30;102113.00;;;;2052092;28;20224;-52
2024/01/09 02:07:07;;;;;;;5.63;4.10;;;;;19.30;102115.00;;;;2047899;28;20927;-52
2024/01/09 02:08:07;;;;;;;5.80;3.90;;;;;19.30;102114.00;;;;2064475;28;20222;-52
2024/01/09 02:09:08;;;;;;;5.77;4.50;;;;;19.30;102180.00;;;;2062432;28;20233;-52
2024/01/09 02:10:08;;;;;;;6.00;4.17;;;;;19.30;102115.00;;;;2060144;28;20975;-50
2024/01/09 02:11:10;;;;;;;5.23;4.00;;;;;19.30;102121.00;;;;2059213;28;20710;-52
2024/01/09 02:12:10;;;;;;;6.25;4.28;;;;;19.30;102111.00;;;;2056466;28;20222;-54
2024/01/09 02:13:10;;;;;;;5.57;4.00;;;;;19.30;102113.00;;;;2056146;28;20216;-50
2024/01/09 02:14:11;;;;;;;4.73;3.83;;;;;19.30;102112.00;;;;2057526;28;20215;-50
2024/01/09 02:15:11;;;;;;;5.30;3.87;;;;;19.20;102114.00;;;;2055623;28;20211;-50
2024/01/09 02:16:11;;;;;;;5.40;3.77;;;;;19.30;102109.00;;;;2054672;28;20239;-52
2024/01/09 02:17:11;;;;;;;5.60;3.80;;;;;19.30;102108.00;;;;2058943;28;20246;-52
2024/01/09 02:18:12;;;;;;;5.40;4.07;;;;;19.20;102111.00;;;;2062973;28;20354;-51
2024/01/09 02:19:12;;;;;;;5.07;3.53;;;;;19.20;102112.00;;;;2063642;28;20214;-50
2024/01/09 02:20:13;;;;;;;6.13;3.93;;;;;19.20;102109.00;;;;2060902;28;20229;-50
2024/01/09 02:21:13;;;;;;;4.90;4.00;;;;;19.20;102115.00;;;;2065395;28;20222;-50
2024/01/09 02:22:13;;;;;;;5.00;3.80;;;;;19.20;102107.00;;;;2057718;28;20232;-51
2024/01/09 02:23:14;;;;;;;5.93;3.73;;;;;19.20;102115.00;;;;2067266;28;20314;-52
2024/01/09 02:24:14;;;;;;;6.70;4.13;;;;;19.20;102110.00;;;;2068577;28;20264;-52
2024/01/09 02:25:14;;;;;;;5.80;4.07;;;;;19.20;102116.00;;;;2063182;28;20588;-54
2024/01/09 02:26:19;;;;;;;5.10;3.97;;;;;19.20;102112.00;;;;2062950;28;20642;-54
2024/01/09 02:27:36;;;;;;;6.03;4.10;;;;;19.20;102096.00;;;;2049124;28;20223;-53
2024/01/09 02:28:45;;;;;;;5.78;3.53;;;;;19.20;102113.00;;;;2059927;28;20231;-52
2024/01/09 02:29:49;;;;;;;5.47;3.40;;;;;19.20;102094.00;;;;2057497;28;20223;-51
2024/01/09 02:30:50;;;;;;;4.28;3.08;;;;;19.20;102103.00;;;;2051496;28;20207;-51
2024/01/09 02:31:50;;;;;;;5.90;3.60;;;;;19.20;102101.00;;;;2059878;28;20218;-52
2024/01/09 02:32:51;;;;;;;5.20;3.37;;;;;19.20;102101.00;;;;2040724;28;22121;-53
2024/01/09 02:33:51;;;;;;;5.23;3.47;;;;;19.20;102110.00;;;;2061281;28;20281;-50
2024/01/09 02:34:52;;;;;;;6.47;3.60;;;;;19.20;102105.00;;;;2057183;28;20478;-51
2024/01/09 02:35:52;;;;;;;5.30;3.20;;;;;19.20;102105.00;;;;2056754;28;20221;-52
2024/01/09 02:36:52;;;;;;;7.13;3.40;;;;;19.20;102110.00;;;;2054058;28;20216;-52
2024/01/09 02:37:53;;;;;;;5.47;3.20;;;;;18.60;102106.00;;;;2055637;28;20292;-51
2024/01/09 02:38:53;;;;;;;4.63;3.30;;;;;19.20;102102.00;;;;2060206;28;20215;-51
2024/01/09 02:39:58;;;;;;;5.10;4.00;;;;;19.20;102100.00;;;;2052851;28;20217;-51
2024/01/09 02:40:58;;;;;;;4.57;2.78;;;;;19.20;102099.00;;;;2062121;28;20687;-51
2024/01/09 02:41:59;;;;;;;4.83;3.50;;;;;19.20;102094.00;;;;2059928;28;20218;-51
2024/01/09 02:42:59;;;;;;;4.77;3.40;;;;;19.20;102102.00;;;;2047718;28;20237;-52
2024/01/09 02:43:59;;;;;;;6.03;3.40;;;;;19.20;102092.00;;;;2054050;28;20293;-52
2024/01/09 02:45:00;;;;;;;4.27;3.20;;;;;19.20;102108.00;;;;2055526;28;20218;-51
2024/01/09 02:46:00;;;;;;;5.17;3.47;;;;;19.20;102095.00;;;;2053672;28;20296;-50
2024/01/09 02:47:00;;;;;;;4.47;3.10;;;;;19.20;102101.00;;;;2056563;28;20318;-52
2024/01/09 02:48:01;;;;;;;4.40;3.17;;;;;19.20;102100.00;;;;2052363;28;20222;-50
2024/01/09 02:49:01;;;;;;;5.40;3.70;;;;;19.20;102096.00;;;;2060399;28;20244;-51
2024/01/09 02:50:01;;;;;;;4.93;3.43;;;;;19.20;102097.00;;;;2061292;28;20410;-50
2024/01/09 02:51:02;;;;;;;3.67;3.00;;;;;19.20;102092.00;;;;2060931;28;20659;-52
2024/01/09 02:52:02;;;;;;;5.20;3.17;;;;;19.20;102094.00;;;;2056883;28;20410;-51
2024/01/09 02:53:03;;;;;;;4.97;3.53;;;;;19.20;102091.00;;;;2050086;28;20253;-50
2024/01/09 02:54:03;;;;;;;5.43;3.70;;;;;19.20;102099.00;;;;2060984;28;20234;-51
2024/01/09 02:55:03;;;;;;;3.97;2.97;;;;;19.20;102095.00;;;;2058105;28;20219;-53
2024/01/09 02:56:05;;;;;;;4.77;3.20;;;;;19.20;102095.00;;;;2055602;28;20215;-50
2024/01/09 02:57:05;;;;;;;4.38;3.10;;;;;19.20;102091.00;;;;2055422;28;20587;-51
2024/01/09 02:58:05;;;;;;;5.40;3.10;;;;;19.20;102089.00;;;;2054542;28;20207;-51
2024/01/09 02:59:06;;;;;;;3.63;2.93;;;;;19.20;102095.00;;;;2055997;28;20214;-50
2024/01/09 03:00:08;;;;;;;4.60;3.20;;;;;19.20;102095.00;;;;2053397;28;20238;-51
2024/01/09 03:01:08;;;;;;;4.60;3.15;;;;;19.20;102101.00;;;;2048630;28;20249;-50
2024/01/09 03:02:08;;;;;;;5.23;3.00;;;;;19.20;102093.00;;;;2043231;28;20220;-52
2024/01/09 03:03:09;;;;;;;5.00;3.03;;;;;19.20;102103.00;;;;2054073;28;20228;-50
2024/01/09 03:04:09;;;;;;;5.80;3.40;;;;;19.20;102095.00;;;;2056912;28;20223;-50
2024/01/09 03:05:09;;;;;;;4.60;3.13;;;;;19.20;102086.00;;;;2060704;28;20236;-52
2024/01/09 03:06:10;;;;;;;3.87;2.80;;;;;19.20;102092.00;;;;2058668;28;20271;-52
2024/01/09 03:07:10;;;;;;;4.70;2.63;;;;;19.20;102090.00;;;;2046924;28;20278;-52
2024/01/09 03:08:10;;;;;;;4.70;3.00;;;;;19.20;102088.00;;;;2061078;28;20234;-51
2024/01/09 03:09:11;;;;;;;5.67;3.30;;;;;19.20;102094.00;;;;2058719;28;20707;-50
2024/01/09 03:10:11;;;;;;;4.80;3.30;;;;;19.20;102095.00;;;;2057011;28;20227;-50
2024/01/09 03:11:12;;;;;;;5.40;3.13;;;;;19.20;102093.00;;;;2062044;28;20706;-52
2024/01/09 03:12:12;;;;;;;4.90;3.13;;;;;19.20;102085.00;;;;2046165;28;20235;-52
2024/01/09 03:13:12;;;;;;;5.20;2.87;;;;;19.20;102093.00;;;;2053900;28;20223;-52
2024/01/09 03:14:14;;;;;;;4.43;3.00;;;;;19.20;102089.00;;;;2056560;28;20247;-52
2024/01/09 03:15:15;;;;;;;3.88;3.03;;;;;19.10;102092.00;;;;2057931;28;20378;-51
2024/01/09 03:16:15;;;;;;;3.77;2.90;;;;;19.20;102089.00;;;;2055808;28;20293;-52
2024/01/09 03:17:15;;;;;;;5.87;3.43;;;;;19.20;102096.00;;;;2046789;28;20764;-52
2024/01/09 03:18:16;;;;;;;4.37;2.90;;;;;19.10;102091.00;;;;2057619;28;20226;-50
2024/01/09 03:19:16;;;;;;;4.53;2.80;;;;;19.10;102088.00;;;;2056700;28;20242;-51
2024/01/09 03:20:16;;;;;;;4.00;3.07;;;;;19.10;102111.00;;;;2057841;28;20297;-51
2024/01/09 03:21:17;;;;;;;4.10;2.77;;;;;19.10;102099.00;;;;2059843;28;20570;-51
2024/01/09 03:22:17;;;;;;;4.00;2.90;;;;;19.10;102094.00;;;;2058559;28;20690;-52
2024/01/09 03:23:17;;;;;;;3.90;2.70;;;;;19.10;102117.00;;;;2069160;28;20840;-52
2024/01/09 03:24:18;;;;;;;5.10;2.83;;;;;19.10;102091.00;;;;2065326;28;20604;-52
2024/01/09 03:25:18;;;;;;;3.97;2.60;;;;;19.10;102087.00;;;;2065715;28;20621;-52
2024/01/09 03:26:18;;;;;;;4.60;3.37;;;;;19.10;102092.00;;;;2061714;28;20223;-50
2024/01/09 03:27:19;;;;;;;4.10;2.63;;;;;19.10;101981.00;;;;2052241;28;20214;-51
2024/01/09 03:28:19;;;;;;;3.70;2.67;;;;;19.10;102088.00;;;;2063075;28;20507;-50
2024/01/09 03:29:19;;;;;;;3.10;2.33;;;;;19.10;102093.00;;;;2065317;28;20587;-51
2024/01/09 03:30:20;;;;;;;4.20;2.90;;;;;19.10;102091.00;;;;2061832;28;20281;-52
2024/01/09 03:31:20;;;;;;;4.90;2.77;;;;;19.10;102090.00;;;;2062892;28;20218;-52
2024/01/09 03:32:21;;;;;;;3.63;2.47;;;;;19.10;102086.00;;;;2054993;28;20233;-51
2024/01/09 03:33:21;;;;;;;4.13;2.83;;;;;19.10;102079.00;;;;2068033;28;20225;-51
2024/01/09 03:34:22;;;;;;;4.50;2.40;;;;;19.10;102084.00;;;;2065425;28;20222;-52
2024/01/09 03:35:23;;;;;;;3.97;3.07;;;;;19.10;102088.00;;;;2061566;28;21601;-56
2024/01/09 03:36:23;;;;;;;4.60;2.57;;;;;19.10;102081.00;;;;2069796;28;20218;-51
2024/01/09 03:37:23;;;;;;;4.60;2.80;;;;;19.10;102087.00;;;;2059871;28;23341;-52
2024/01/09 03:38:24;;;;;;;4.00;2.80;;;;;19.10;102090.00;;;;2068874;28;20222;-52
2024/01/09 03:39:24;;;;;;;3.77;2.53;;;;;19.10;102083.00;;;;2065226;28;20219;-52
2024/01/09 03:40:25;;;;;;;4.23;2.50;;;;;19.10;102086.00;;;;2065294;28;20214;-52
2024/01/09 03:41:25;;;;;;;3.57;2.80;;;;;19.10;102089.00;;;;2066649;28;20226;-51
2024/01/09 03:42:25;;;;;;;3.73;2.50;;;;;19.10;102087.00;;;;2055183;28;20222;-51
2024/01/09 03:43:26;;;;;;;3.97;2.40;;;;;19.10;102073.00;;;;2064100;28;20254;-51
2024/01/09 03:44:26;;;;;;;4.53;3.00;;;;;19.10;102096.00;;;;2061364;28;20225;-52
2024/01/09 03:45:26;;;;;;;4.00;2.50;;;;;19.10;102095.00;;;;2066862;28;20222;-51
2024/01/09 03:46:27;;;;;;;3.80;2.87;;;;;19.10;102096.00;;;;2069880;28;20228;-52
2024/01/09 03:47:27;;;;;;;3.57;2.40;;;;;19.10;102087.00;;;;2058074;28;20230;-51
2024/01/09 03:48:27;;;;;;;4.10;2.80;;;;;19.10;102088.00;;;;2064605;28;20234;-51
2024/01/09 03:49:28;;;;;;;4.30;2.57;;;;;19.10;102096.00;;;;2065810;28;20214;-51
2024/01/09 03:50:28;;;;;;;4.07;2.60;;;;;19.10;102095.00;;;;2064041;28;20343;-51
2024/01/09 03:51:29;;;;;;;3.33;2.47;;;;;19.10;102091.00;;;;2060459;28;20241;-51
2024/01/09 03:52:29;;;;;;;3.33;2.30;;;;;19.10;102100.00;;;;2051904;28;20250;-51
2024/01/09 03:53:29;;;;;;;2.87;1.90;;;;;19.10;101960.00;;;;2066900;28;20694;-53
2024/01/09 03:54:30;;;;;;;4.50;3.00;;;;;19.10;102098.00;;;;2067869;28;20241;-50
2024/01/09 03:55:30;;;;;;;3.83;2.60;;;;;19.10;102093.00;;;;2055917;28;20223;-50
2024/01/09 03:56:30;;;;;;;3.33;2.13;;;;;19.10;102096.00;;;;2062501;28;20218;-52
2024/01/09 03:57:31;;;;;;;3.47;2.43;;;;;19.10;102097.00;;;;2054259;28;20301;-51
2024/01/09 03:58:31;;;;;;;4.00;2.50;;;;;19.10;102095.00;;;;2066913;28;20224;-51
2024/01/09 03:59:31;;;;;;;3.23;2.13;;;;;19.10;102093.00;;;;2065915;28;20639;-53
2024/01/09 04:00:32;;;;;;;4.33;2.60;;;;;19.20;102093.00;;;;2064176;28;20687;-52
2024/01/09 04:01:32;;;;;;;3.70;2.43;;;;;19.10;102100.00;;;;2065707;28;20766;-50
2024/01/09 04:02:32;;;;;;;4.03;2.40;;;;;19.10;102103.00;;;;2051200;28;20227;-51
2024/01/09 04:03:33;;;;;;;3.80;2.80;;;;;19.10;102097.00;;;;2062578;28;20217;-52
2024/01/09 04:04:33;;;;;;;4.47;2.97;;;;;19.20;102090.00;;;;2063948;28;20211;-52
2024/01/09 04:05:33;;;;;;;4.07;2.77;;;;;19.20;102095.00;;;;2061623;28;20229;-53
2024/01/09 04:06:34;;;;;;;3.97;2.67;;;;;19.10;102099.00;;;;2065978;28;20215;-51
2024/01/09 04:07:34;;;;;;;3.30;2.27;;;;;19.10;102093.00;;;;2052895;28;20253;-51
2024/01/09 04:08:34;;;;;;;3.60;2.30;;;;;19.10;102096.00;;;;2063526;28;20226;-50
2024/01/09 04:09:35;;;;;;;2.83;2.03;;;;;19.10;102090.00;;;;2069394;28;20289;-50
2024/01/09 04:10:35;;;;;;;3.03;2.73;;;;;19.10;102099.00;;;;2067865;28;20249;-51
2024/01/09 04:11:42;;;;;;;3.97;2.33;;;;;19.10;102084.00;;;;2063471;28;20258;-52
2024/01/09 04:12:42;;;;;;;4.05;2.35;;;;;19.10;102100.00;;;;2057448;28;20234;-52
2024/01/09 04:13:42;;;;;;;3.07;2.47;;;;;19.10;102096.00;;;;2069207;28;20229;-52
2024/01/09 04:14:43;;;;;;;3.70;2.50;;;;;19.10;102086.00;;;;2069048;28;20218;-50
2024/01/09 04:15:43;;;;;;;3.13;2.37;;;;;19.10;102095.00;;;;2068116;28;20288;-52
2024/01/09 04:16:47;;;;;;;3.43;2.50;;;;;19.10;102098.00;;;;2069086;28;20230;-50
2024/01/09 04:17:47;;;;;;;3.25;2.15;;;;;19.10;102085.00;;;;2053072;28;20301;-50
2024/01/09 04:18:47;;;;;;;3.10;2.13;;;;;19.10;102094.00;;;;2068800;28;20666;-52
2024/01/09 04:19:48;;;;;;;3.20;2.17;;;;;19.10;102094.00;;;;2068103;28;20814;-53
2024/01/09 04:20:48;;;;;;;3.17;2.27;;;;;19.10;102083.00;;;;2068210;28;20218;-50
2024/01/09 04:21:48;;;;;;;2.97;2.10;;;;;19.10;102080.00;;;;2068013;28;20229;-51
2024/01/09 04:22:49;;;;;;;3.33;2.30;;;;;19.10;102083.00;;;;2057955;28;20304;-51
2024/01/09 04:23:49;;;;;;;3.50;2.37;;;;;19.10;102085.00;;;;2065531;28;20214;-51
2024/01/09 04:24:49;;;;;;;4.10;2.63;;;;;19.10;102090.00;;;;2062991;28;20285;-51
2024/01/09 04:25:50;;;;;;;3.80;2.20;;;;;19.10;102081.00;;;;2068694;28;20221;-52
2024/01/09 04:26:50;;;;;;;3.87;2.50;;;;;19.10;102083.00;;;;2067449;28;20218;-52
2024/01/09 04:27:50;;;;;;;3.70;2.80;;;;;19.10;102081.00;;;;2059428;28;20214;-52
2024/01/09 04:28:51;;;;;;;6.40;2.90;;;;;19.10;102089.00;;;;2059309;28;20250;-52
2024/01/09 04:29:51;;;;;;;3.43;2.33;;;;;19.10;102080.00;;;;2061160;28;20658;-50
2024/01/09 04:30:53;;;;;;;3.80;2.43;;;;;19.10;102085.00;;;;2061048;28;20671;-52
2024/01/09 04:31:54;;;;;;;3.55;2.63;;;;;18.40;102082.00;;;;2060091;28;20962;-51
2024/01/09 04:32:54;;;;;;;3.23;2.40;;;;;19.10;102078.00;;;;2050877;28;20223;-50
2024/01/09 04:33:54;;;;;;;2.97;2.20;;;;;19.10;102082.00;;;;2061493;28;20273;-51
2024/01/09 04:34:55;;;;;;;3.40;2.30;;;;;19.10;102082.00;;;;2069048;28;20238;-51
2024/01/09 04:35:55;;;;;;;4.17;2.97;;;;;19.10;102084.00;;;;2069185;28;20240;-52
2024/01/09 04:36:56;;;;;;;4.47;2.27;;;;;19.10;102090.00;;;;2068329;28;20237;-52
2024/01/09 04:37:56;;;;;;;3.50;2.30;;;;;19.10;102085.00;;;;2059006;28;20445;-50
2024/01/09 04:38:59;;;;;;;3.50;2.53;;;;;19.10;102085.00;;;;2063715;28;20218;-51
2024/01/09 04:39:59;;;;;;;4.35;2.38;;;;;19.10;102077.00;;;;2068475;28;20550;-52
2024/01/09 04:40:59;;;;;;;3.17;2.13;;;;;19.10;102077.00;;;;2067982;28;20218;-53
2024/01/09 04:42:00;;;;;;;4.00;2.57;;;;;19.00;102084.00;;;;2066594;28;20234;-52
2024/01/09 04:43:00;;;;;;;5.20;2.50;;;;;19.10;102101.00;;;;2052416;28;20219;-50
2024/01/09 04:44:01;;;;;;;3.63;2.63;;;;;19.10;102080.00;;;;2067924;28;20589;-51
2024/01/09 04:45:01;;;;;;;3.80;2.23;;;;;19.10;102071.00;;;;2068338;28;20222;-51
2024/01/09 04:46:01;;;;;;;3.47;1.87;;;;;19.10;102077.00;;;;2063270;28;20219;-51
2024/01/09 04:47:02;;;;;;;3.23;2.10;;;;;19.10;102079.00;;;;2059658;28;20315;-52
2024/01/09 04:48:02;;;;;;;3.10;1.90;;;;;19.10;102071.00;;;;2052662;28;20226;-52
2024/01/09 04:49:04;;;;;;;3.13;2.00;;;;;19.10;102079.00;;;;2068061;28;20211;-50
2024/01/09 04:50:05;;;;;;;2.85;2.10;;;;;19.00;102073.00;;;;2069187;28;20309;-52
2024/01/09 04:51:05;;;;;;;3.40;2.50;;;;;19.00;102072.00;;;;2066476;28;20580;-50
2024/01/09 04:52:05;;;;;;;3.57;2.27;;;;;19.00;102070.00;;;;2052445;28;20219;-51
2024/01/09 04:53:06;;;;;;;3.03;2.20;;;;;19.00;102079.00;;;;2062963;28;20218;-51
2024/01/09 04:54:06;;;;;;;3.37;2.10;;;;;19.00;102074.00;;;;2061778;28;20218;-51
2024/01/09 04:55:07;;;;;;;4.17;2.50;;;;;19.00;102071.00;;;;2067405;28;20697;-52
2024/01/09 04:56:08;;;;;;;3.95;2.28;;;;;19.00;102073.00;;;;2066967;28;20210;-52
2024/01/09 04:57:09;;;;;;;3.80;2.30;;;;;19.00;102077.00;;;;2051720;28;20250;-51
2024/01/09 04:58:09;;;;;;;3.93;2.20;;;;;19.00;102075.00;;;;2061054;28;20782;-51